Venta Maersk — OWHH2 — position and weather

sailwx.info

Track history (hours):
 
Tides and Currents Weather Stations Pressure Air Temp Water Temp Dewpoint Dewpoint Depression Visibility Wind Speed Wind Dir Waves Ship Positions

Venta Maersk

Last reported at 2020-Jan-20 07:00 UTC. Time now 2020-Jan-20 08:25 UTC.
Position N 56°53' E 011°49'.

Length 200 m; draft 10.9 m.

Type: Ship (hazmat cat A). MMSI: 219115000.

Date/timePositionNaut miles runAvg speedWind from/ knotsBaromVisibWave heightAir tempDewpointWater temp
2020-Jan-20 07:00N 56°53' E 011°49'1010.0
2020-Jan-20 06:01N 56°43' E 011°51'510.9
2020-Jan-20 05:31N 56°39' E 011°46'510.9
2020-Jan-20 05:01N 56°34' E 011°42'1710.7
2020-Jan-20 03:26N 56°19' E 011°26'1010.5
2020-Jan-20 02:30N 56°11' E 011°17'6812.4
2020-Jan-19 21:00N 55°04' E 011°01'2412.0
2020-Jan-19 19:00N 54°41' E 010°47'510.2
2020-Jan-19 18:30N 54°38' E 010°55'2010.2
2020-Jan-19 16:30N 54°31' E 011°28'30 8.5
2020-Jan-19 13:00N 54°36' E 012°18'3210.6
2020-Jan-19 10:00N 54°52' E 013°07'4411.0
2020-Jan-19 06:01N 55°12' E 014°15'1911.2
2020-Jan-19 04:20N 55°26' E 014°37'911.5
2020-Jan-19 03:30N 55°30' E 014°51'2911.5
2020-Jan-19 01:00N 55°45' E 015°35'611.4
2020-Jan-19 00:30N 55°48' E 015°44'2911.5
2020-Jan-18 22:00N 56°03' E 016°28'611.2
2020-Jan-18 21:30N 56°05' E 016°37'1111.1
2020-Jan-18 20:30N 56°12' E 016°53'1111.1
2020-Jan-18 19:30N 56°18' E 017°09'  
2020-Jan-15 22:30N 59°18' E 022°02'4317.3
2020-Jan-15 20:00N 59°38' E 023°18'917.3
2020-Jan-15 19:30N 59°40' E 023°35'2617.1
2020-Jan-15 18:00N 59°47' E 024°24'6616.6
2020-Jan-15 14:00N 60°07' E 026°30'2114.1
2020-Jan-15 12:30N 60°25' E 026°54'1 0.6
2020-Jan-15 11:29N 60°25' E 026°55'0 0.0
2020-Jan-15 09:29N 60°25' E 026°55'0 0.0
2020-Jan-15 08:30N 60°25' E 026°55'0 0.0
2020-Jan-15 04:59N 60°25' E 026°55'0 0.0
2020-Jan-15 03:30N 60°25' E 026°55'0 0.0
2020-Jan-15 02:29N 60°25' E 026°55'0 0.0
2020-Jan-15 01:29N 60°25' E 026°55'0 0.0
2020-Jan-14 23:59N 60°25' E 026°55'0 0.0
2020-Jan-14 21:29N 60°25' E 026°55'0 0.0
2020-Jan-14 20:59N 60°25' E 026°55'0 0.0
2020-Jan-14 19:29N 60°25' E 026°55'0 0.0
2020-Jan-14 18:29N 60°25' E 026°55'0 0.0
2020-Jan-14 17:59N 60°25' E 026°55'0 0.0
2020-Jan-14 17:30N 60°25' E 026°55'0 0.0
2020-Jan-14 16:59N 60°25' E 026°55'0 0.0
2020-Jan-14 14:59N 60°25' E 026°55'0 0.0
2020-Jan-14 14:30N 60°25' E 026°55'0 0.0
2020-Jan-14 13:29N 60°25' E 026°55'0 0.0
2020-Jan-14 11:59N 60°25' E 026°55'0 0.0
2020-Jan-14 11:29N 60°25' E 026°55'0 0.0
2020-Jan-14 11:00N 60°25' E 026°55'0 0.0
2020-Jan-14 09:59N 60°25' E 026°55'0 0.0
2020-Jan-14 07:29N 60°25' E 026°55'0 0.0
2020-Jan-14 06:00N 60°25' E 026°55'0 0.0
2020-Jan-14 05:30N 60°25' E 026°55'0 0.0
2020-Jan-14 01:00N 60°25' E 026°55'0 0.0
2020-Jan-13 20:30N 60°25' E 026°55'0 0.0
2020-Jan-13 18:00N 60°25' E 026°55'0 0.0
2020-Jan-13 17:00N 60°25' E 026°55'0 0.0
2020-Jan-13 12:00N 60°25' E 026°55'0 0.0
2020-Jan-13 11:00N 60°25' E 026°55'0 0.0
2020-Jan-13 08:00N 60°25' E 026°55'0 0.0
2020-Jan-13 06:30N 60°25' E 026°55'0 0.0
2020-Jan-13 05:00N 60°25' E 026°55'0 0.0
2020-Jan-13 04:30N 60°25' E 026°55'0 0.0
2020-Jan-13 04:00N 60°25' E 026°55'0 0.0
2020-Jan-13 03:30N 60°25' E 026°55'0 0.3
2020-Jan-13 02:01N 60°25' E 026°55'4 7.7
2020-Jan-13 01:31N 60°23' E 026°48'1414.4
2020-Jan-13 00:30N 60°14' E 026°25'6014.9
2020-Jan-12 20:30N 59°46' E 024°40'3517.6
2020-Jan-12 18:30N 59°35' E 023°33'1817.8
2020-Jan-12 17:30N 59°30' E 022°60'1817.5
2020-Jan-12 16:30N 59°23' E 022°28'26817.3
2020-Jan-12 01:00N 56°04' E 016°50'1818.1
2020-Jan-12 00:00N 55°55' E 016°23'1817.9
2020-Jan-11 23:00N 55°46' E 015°56'917.7
2020-Jan-11 22:30N 55°41' E 015°42'1817.8
2020-Jan-11 21:30N 55°32' E 015°15'917.9
2020-Jan-11 21:00N 55°29' E 015°00'7318.1
2020-Jan-11 16:57N 54°51' E 013°10'1818.4
2020-Jan-11 16:00N 54°45' E 012°41'6312.7
2020-Jan-11 11:00N 54°51' E 010°52'7415.6
2020-Jan-11 06:18N 56°05' E 011°07'4215.0
2020-Jan-11 03:30N 56°40' E 011°48'816.7
2020-Jan-11 03:00N 56°48' E 011°49'918.1
2020-Jan-11 02:30N 56°56' E 011°44'1818.0
2020-Jan-11 01:30N 57°13' E 011°32'2617.3
2020-Jan-11 00:00N 57°36' E 011°07'917.6
2020-Jan-10 23:30N 57°42' E 010°56'9916.4
2020-Jan-10 17:29N 57°03' E 008°06'1019.0
2020-Jan-10 16:59N 56°54' E 008°00'2918.9
2020-Jan-10 15:27N 56°31' E 007°30'  
Track history (hours):
 
Tides and Currents Weather Stations Pressure Air Temp Water Temp Dewpoint Dewpoint Depression Visibility Wind Speed Wind Dir Waves Ship Positions

Venta Maersk

Last reported at 2020-Jan-20 07:00 UTC. Time now 2020-Jan-20 08:25 UTC.
Position N 56°53' E 011°49'.

Length 200 m; draft 10.9 m.

Type: Ship (hazmat cat A). MMSI: 219115000.

Date/timePositionNaut miles runAvg speedWind from/ knotsBaromVisibWave heightAir tempDewpointWater temp
2020-Jan-20 07:00N 56°53' E 011°49'1010.0
2020-Jan-20 06:01N 56°43' E 011°51'510.9
2020-Jan-20 05:31N 56°39' E 011°46'510.9
2020-Jan-20 05:01N 56°34' E 011°42'1710.7
2020-Jan-20 03:26N 56°19' E 011°26'1010.5
2020-Jan-20 02:30N 56°11' E 011°17'6812.4
2020-Jan-19 21:00N 55°04' E 011°01'2412.0
2020-Jan-19 19:00N 54°41' E 010°47'510.2
2020-Jan-19 18:30N 54°38' E 010°55'2010.2
2020-Jan-19 16:30N 54°31' E 011°28'30 8.5
2020-Jan-19 13:00N 54°36' E 012°18'3210.6
2020-Jan-19 10:00N 54°52' E 013°07'4411.0
2020-Jan-19 06:01N 55°12' E 014°15'1911.2
2020-Jan-19 04:20N 55°26' E 014°37'911.5
2020-Jan-19 03:30N 55°30' E 014°51'2911.5
2020-Jan-19 01:00N 55°45' E 015°35'611.4
2020-Jan-19 00:30N 55°48' E 015°44'2911.5
2020-Jan-18 22:00N 56°03' E 016°28'611.2
2020-Jan-18 21:30N 56°05' E 016°37'1111.1
2020-Jan-18 20:30N 56°12' E 016°53'1111.1
2020-Jan-18 19:30N 56°18' E 017°09'  
2020-Jan-15 22:30N 59°18' E 022°02'4317.3
2020-Jan-15 20:00N 59°38' E 023°18'917.3
2020-Jan-15 19:30N 59°40' E 023°35'2617.1
2020-Jan-15 18:00N 59°47' E 024°24'6616.6
2020-Jan-15 14:00N 60°07' E 026°30'2114.1
2020-Jan-15 12:30N 60°25' E 026°54'1 0.6
2020-Jan-15 11:29N 60°25' E 026°55'0 0.0
2020-Jan-15 09:29N 60°25' E 026°55'0 0.0
2020-Jan-15 08:30N 60°25' E 026°55'0 0.0
2020-Jan-15 04:59N 60°25' E 026°55'0 0.0
2020-Jan-15 03:30N 60°25' E 026°55'0 0.0
2020-Jan-15 02:29N 60°25' E 026°55'0 0.0
2020-Jan-15 01:29N 60°25' E 026°55'0 0.0
2020-Jan-14 23:59N 60°25' E 026°55'0 0.0
2020-Jan-14 21:29N 60°25' E 026°55'0 0.0
2020-Jan-14 20:59N 60°25' E 026°55'0 0.0
2020-Jan-14 19:29N 60°25' E 026°55'0 0.0
2020-Jan-14 18:29N 60°25' E 026°55'0 0.0
2020-Jan-14 17:59N 60°25' E 026°55'0 0.0
2020-Jan-14 17:30N 60°25' E 026°55'0 0.0
2020-Jan-14 16:59N 60°25' E 026°55'0 0.0
2020-Jan-14 14:59N 60°25' E 026°55'0 0.0
2020-Jan-14 14:30N 60°25' E 026°55'0 0.0
2020-Jan-14 13:29N 60°25' E 026°55'0 0.0
2020-Jan-14 11:59N 60°25' E 026°55'0 0.0
2020-Jan-14 11:29N 60°25' E 026°55'0 0.0
2020-Jan-14 11:00N 60°25' E 026°55'0 0.0
2020-Jan-14 09:59N 60°25' E 026°55'0 0.0
2020-Jan-14 07:29N 60°25' E 026°55'0 0.0
2020-Jan-14 06:00N 60°25' E 026°55'0 0.0
2020-Jan-14 05:30N 60°25' E 026°55'0 0.0
2020-Jan-14 01:00N 60°25' E 026°55'0 0.0
2020-Jan-13 20:30N 60°25' E 026°55'0 0.0
2020-Jan-13 18:00N 60°25' E 026°55'0 0.0
2020-Jan-13 17:00N 60°25' E 026°55'0 0.0
2020-Jan-13 12:00N 60°25' E 026°55'0 0.0
2020-Jan-13 11:00N 60°25' E 026°55'0 0.0
2020-Jan-13 08:00N 60°25' E 026°55'0 0.0
2020-Jan-13 06:30N 60°25' E 026°55'0 0.0
2020-Jan-13 05:00N 60°25' E 026°55'0 0.0
2020-Jan-13 04:30N 60°25' E 026°55'0 0.0
2020-Jan-13 04:00N 60°25' E 026°55'0 0.0
2020-Jan-13 03:30N 60°25' E 026°55'0 0.3
2020-Jan-13 02:01N 60°25' E 026°55'4 7.7
2020-Jan-13 01:31N 60°23' E 026°48'1414.4
2020-Jan-13 00:30N 60°14' E 026°25'6014.9
2020-Jan-12 20:30N 59°46' E 024°40'3517.6
2020-Jan-12 18:30N 59°35' E 023°33'1817.8
2020-Jan-12 17:30N 59°30' E 022°60'1817.5
2020-Jan-12 16:30N 59°23' E 022°28'26817.3
2020-Jan-12 01:00N 56°04' E 016°50'1818.1
2020-Jan-12 00:00N 55°55' E 016°23'1817.9
2020-Jan-11 23:00N 55°46' E 015°56'917.7
2020-Jan-11 22:30N 55°41' E 015°42'1817.8
2020-Jan-11 21:30N 55°32' E 015°15'917.9
2020-Jan-11 21:00N 55°29' E 015°00'7318.1
2020-Jan-11 16:57N 54°51' E 013°10'1818.4
2020-Jan-11 16:00N 54°45' E 012°41'6312.7
2020-Jan-11 11:00N 54°51' E 010°52'7415.6
2020-Jan-11 06:18N 56°05' E 011°07'4215.0
2020-Jan-11 03:30N 56°40' E 011°48'816.7
2020-Jan-11 03:00N 56°48' E 011°49'918.1
2020-Jan-11 02:30N 56°56' E 011°44'1818.0
2020-Jan-11 01:30N 57°13' E 011°32'2617.3
2020-Jan-11 00:00N 57°36' E 011°07'917.6
2020-Jan-10 23:30N 57°42' E 010°56'9916.4
2020-Jan-10 17:29N 57°03' E 008°06'1019.0
2020-Jan-10 16:59N 56°54' E 008°00'2918.9
2020-Jan-10 15:27N 56°31' E 007°30'  

Dump ship's entire track history